Terminal Aerodrome Forecast
Issued by NWS Cheyenne, WY

Home | Current Version | Previous Version | Text Only | Print | Product List | Glossary On
Versions: 1 2 3 4 5 6 7 8 9 10 11 12 13 14 15 16
000
FTUS45 KCYS 230500
TAFCYS
TAF
KCYS 230520Z 2306/2406 27008KT P6SM SCT250
     FM231200 25010KT P6SM SCT250
     FM231600 26017G25KT P6SM BKN200=

USA.gov is the U.S. government's official web portal to all federal, state and local government web resources and services.